createdAt,value
2022-10-09T00:00:25.488Z,89.41
2022-10-09T00:02:52.466Z,88.71
2022-10-09T00:05:19.264Z,88.64
2022-10-09T00:07:46.020Z,87.58
2022-10-09T00:10:12.854Z,88.20
2022-10-09T00:12:39.574Z,87.84
2022-10-09T00:15:06.390Z,88.23
2022-10-09T00:17:33.231Z,88.21
2022-10-09T00:19:59.926Z,87.90
2022-10-09T00:22:26.703Z,87.57
2022-10-09T00:24:53.413Z,87.75
2022-10-09T00:27:21.625Z,88.21
2022-10-09T00:29:48.361Z,87.65
2022-10-09T00:32:15.542Z,88.28
2022-10-09T00:34:42.298Z,88.36
2022-10-09T00:37:09.040Z,88.30
2022-10-09T00:39:36.000Z,88.25
2022-10-09T00:42:07.556Z,88.32
2022-10-09T00:44:48.205Z,88.01
2022-10-09T00:47:20.876Z,88.09
2022-10-09T00:49:48.454Z,88.01
2022-10-09T00:52:15.678Z,87.89
2022-10-09T00:54:42.845Z,88.22
2022-10-09T00:57:09.743Z,88.42
2022-10-09T00:59:36.735Z,88.37
2022-10-09T01:02:03.800Z,89.11
2022-10-09T01:04:31.454Z,89.28
2022-10-09T01:07:27.465Z,89.29
2022-10-09T01:10:12.585Z,88.12
2022-10-09T01:12:42.060Z,89.17
2022-10-09T01:15:17.950Z,89.85
2022-10-09T01:18:03.185Z,89.15
2022-10-09T01:20:32.943Z,89.71
2022-10-09T01:23:18.256Z,89.41
2022-10-09T01:25:58.879Z,89.26
2022-10-09T01:28:30.395Z,89.57
2022-10-09T01:30:58.715Z,89.76
2022-10-09T01:33:25.753Z,89.13
2022-10-09T01:35:53.830Z,88.42
2022-10-09T01:38:22.132Z,88.58
2022-10-09T01:40:49.776Z,89.42
2022-10-09T01:43:16.703Z,89.40
2022-10-09T01:45:44.160Z,89.64
2022-10-09T01:48:14.931Z,89.51
2022-10-09T01:50:44.799Z,89.59
2022-10-09T01:53:14.560Z,90.12
2022-10-09T01:56:25.250Z,89.84
2022-10-09T01:58:56.892Z,90.21
2022-10-09T02:01:31.592Z,90.05
2022-10-09T02:03:59.999Z,91.58
2022-10-09T02:06:28.392Z,90.77
2022-10-09T02:08:55.433Z,90.52
2022-10-09T02:11:24.021Z,91.65
2022-10-09T02:13:53.151Z,91.00
2022-10-09T02:16:22.764Z,91.88
2022-10-09T02:18:52.455Z,90.36
2022-10-09T02:21:22.784Z,90.52
2022-10-09T02:23:51.163Z,91.01
2022-10-09T02:26:18.775Z,90.53
2022-10-09T02:28:46.182Z,90.88
2022-10-09T02:31:13.157Z,90.52
2022-10-09T02:33:40.022Z,90.97
2022-10-09T02:36:06.832Z,91.28
2022-10-09T02:38:33.623Z,91.46
2022-10-09T02:41:01.062Z,91.07
2022-10-09T02:43:27.997Z,91.05
2022-10-09T02:45:54.944Z,91.12
2022-10-09T02:48:21.713Z,90.39
2022-10-09T02:50:48.471Z,90.19
2022-10-09T02:53:15.271Z,91.07
2022-10-09T02:55:42.011Z,91.26
2022-10-09T02:58:08.931Z,91.64
2022-10-09T03:00:42.191Z,91.97
2022-10-09T03:03:08.918Z,91.98
2022-10-09T03:05:35.653Z,91.52
2022-10-09T03:08:02.371Z,91.64
2022-10-09T03:10:29.014Z,92.25
2022-10-09T03:12:55.748Z,92.35
2022-10-09T03:15:22.484Z,93.14
2022-10-09T03:17:49.135Z,93.46
2022-10-09T03:20:15.875Z,93.75
2022-10-09T03:22:42.760Z,93.15
2022-10-09T03:25:13.598Z,92.93
2022-10-09T03:27:40.493Z,91.93
2022-10-09T03:30:07.551Z,92.48
2022-10-09T03:32:34.333Z,92.48
2022-10-09T03:35:01.052Z,91.20
2022-10-09T03:37:30.260Z,90.88
2022-10-09T03:39:57.157Z,91.68
2022-10-09T03:42:24.150Z,91.16
2022-10-09T03:44:51.191Z,90.34
2022-10-09T03:47:17.945Z,91.41
2022-10-09T03:49:44.603Z,93.72
2022-10-09T03:52:11.745Z,93.61
2022-10-09T03:54:38.376Z,93.74
2022-10-09T03:57:05.130Z,93.45
2022-10-09T03:59:32.046Z,93.72
2022-10-09T04:01:58.799Z,93.75
2022-10-09T04:04:25.438Z,93.48
2022-10-09T04:06:52.190Z,93.15
2022-10-09T04:09:21.612Z,93.56
2022-10-09T04:11:48.219Z,93.07
2022-10-09T04:14:14.970Z,92.00
2022-10-09T04:16:41.803Z,92.58
2022-10-09T04:19:08.542Z,92.77
2022-10-09T04:21:35.387Z,92.40
2022-10-09T04:24:03.710Z,92.46
2022-10-09T04:26:30.381Z,91.53
2022-10-09T04:28:57.222Z,91.68
2022-10-09T04:31:24.028Z,91.70
2022-10-09T04:33:50.724Z,92.31
2022-10-09T04:36:17.645Z,91.46
2022-10-09T04:38:44.547Z,93.01
2022-10-09T04:41:11.294Z,92.81
2022-10-09T04:43:38.071Z,92.87
2022-10-09T04:46:08.681Z,93.17
2022-10-09T04:48:39.194Z,91.88
2022-10-09T04:51:06.657Z,92.59
2022-10-09T04:53:33.699Z,93.03
2022-10-09T04:56:04.645Z,92.35
2022-10-09T04:58:31.611Z,92.05
2022-10-09T05:00:58.654Z,92.29
2022-10-09T05:03:25.603Z,90.44
2022-10-09T05:05:52.215Z,90.78
2022-10-09T05:08:18.933Z,92.17
2022-10-09T05:10:45.723Z,89.82
2022-10-09T05:13:12.461Z,89.21
2022-10-09T05:15:45.600Z,90.29
2022-10-09T05:18:12.270Z,90.50
2022-10-09T05:20:42.260Z,88.58
2022-10-09T05:23:08.953Z,87.74
2022-10-09T05:25:35.751Z,86.59
2022-10-09T05:28:02.662Z,86.38
2022-10-09T05:30:29.543Z,85.40
2022-10-09T05:32:56.326Z,82.73
2022-10-09T05:35:23.018Z,80.47
2022-10-09T05:37:49.664Z,81.61
2022-10-09T05:40:16.442Z,82.65
2022-10-09T05:42:43.089Z,81.84
2022-10-09T05:45:10.113Z,82.48
2022-10-09T05:47:36.811Z,83.18
2022-10-09T05:50:03.613Z,82.89
2022-10-09T05:52:30.381Z,79.94
2022-10-09T05:54:57.402Z,75.46
2022-10-09T05:57:24.050Z,75.57
2022-10-09T05:59:50.744Z,76.31
2022-10-09T06:02:17.534Z,78.07
2022-10-09T06:04:44.215Z,77.87
2022-10-09T06:07:11.151Z,77.43
2022-10-09T06:09:37.973Z,76.49
2022-10-09T06:12:04.898Z,76.56
2022-10-09T06:14:31.618Z,73.00
2022-10-09T06:16:58.689Z,67.44
2022-10-09T06:19:26.550Z,63.46
2022-10-09T06:21:53.222Z,61.38
2022-10-09T06:24:25.565Z,58.33
2022-10-09T06:26:54.698Z,58.65
2022-10-09T06:29:21.693Z,60.31
2022-10-09T06:31:48.359Z,62.36
2022-10-09T06:34:15.035Z,63.13
2022-10-09T06:36:41.772Z,63.92
2022-10-09T06:39:08.647Z,61.69
2022-10-09T06:41:35.476Z,60.64
2022-10-09T06:44:04.438Z,62.45
2022-10-09T06:46:32.656Z,64.04
2022-10-09T06:49:00.180Z,65.17
2022-10-09T06:51:28.293Z,67.21
2022-10-09T06:53:56.435Z,67.11
2022-10-09T06:56:23.975Z,68.59
2022-10-09T06:58:50.693Z,68.07
2022-10-09T07:01:17.563Z,68.46
2022-10-09T07:03:45.277Z,74.34
2022-10-09T07:06:13.763Z,75.19
2022-10-09T07:08:41.486Z,69.93
2022-10-09T07:11:12.377Z,69.43
2022-10-09T07:13:39.636Z,69.87
2022-10-09T07:16:06.677Z,70.37
2022-10-09T07:18:34.328Z,70.71
2022-10-09T07:21:02.369Z,71.30
2022-10-09T07:23:32.367Z,71.86
2022-10-09T07:25:59.506Z,73.55
2022-10-09T07:28:26.990Z,74.25
2022-10-09T07:30:53.925Z,73.76
2022-10-09T07:33:20.590Z,73.73
2022-10-09T07:36:00.583Z,73.21
2022-10-09T07:38:27.628Z,71.47
2022-10-09T07:40:54.439Z,70.96
2022-10-09T07:43:21.736Z,69.50
2022-10-09T07:45:48.457Z,67.36
2022-10-09T07:48:15.247Z,66.59
2022-10-09T07:50:41.968Z,66.66
2022-10-09T07:53:08.949Z,67.63
2022-10-09T07:55:36.312Z,68.56
2022-10-09T07:58:03.344Z,67.29
2022-10-09T08:00:29.996Z,68.26
2022-10-09T08:02:56.679Z,68.61
2022-10-09T08:05:23.366Z,67.40
2022-10-09T08:07:50.126Z,66.29
2022-10-09T08:10:16.755Z,65.71
2022-10-09T08:12:43.455Z,65.27
2022-10-09T08:15:10.214Z,65.50
2022-10-09T08:17:36.937Z,66.82
2022-10-09T08:20:03.687Z,65.89
2022-10-09T08:22:30.308Z,65.56
2022-10-09T08:24:57.229Z,66.15
2022-10-09T08:27:23.946Z,65.58
2022-10-09T08:29:50.571Z,66.47
2022-10-09T08:32:17.236Z,64.94
2022-10-09T08:34:44.603Z,64.42
2022-10-09T08:37:11.321Z,64.35
2022-10-09T08:39:37.968Z,64.55
2022-10-09T08:42:06.315Z,65.18
2022-10-09T08:44:32.967Z,66.33
2022-10-09T08:47:03.742Z,64.93
2022-10-09T08:49:30.432Z,64.06
2022-10-09T08:51:58.854Z,64.15
2022-10-09T08:54:31.071Z,65.11
2022-10-09T08:57:00.026Z,65.30
2022-10-09T08:59:27.040Z,65.40
2022-10-09T09:01:59.744Z,65.57
2022-10-09T09:04:39.063Z,63.99
2022-10-09T09:07:11.818Z,62.82
2022-10-09T09:10:11.007Z,61.18
2022-10-09T09:13:06.548Z,58.99
2022-10-09T09:15:38.769Z,57.79
2022-10-09T09:18:23.676Z,57.27
2022-10-09T09:20:58.709Z,57.04
2022-10-09T09:23:29.792Z,56.60
2022-10-09T09:25:56.853Z,57.28
2022-10-09T09:28:35.866Z,57.57
2022-10-09T09:31:13.103Z,57.05
2022-10-09T09:33:45.874Z,54.38
2022-10-09T09:36:20.022Z,54.32
2022-10-09T09:39:24.940Z,55.30
2022-10-09T09:41:33.743Z,54.22
2022-10-09T09:44:00.414Z,53.82
2022-10-09T09:46:29.275Z,52.03
2022-10-09T09:48:56.301Z,51.70
2022-10-09T09:51:29.162Z,51.46
2022-10-09T09:53:58.005Z,50.26
2022-10-09T09:57:11.056Z,49.88
2022-10-09T09:59:31.694Z,50.58
2022-10-09T10:02:11.905Z,50.21
2022-10-09T10:04:43.137Z,50.78
2022-10-09T10:07:09.902Z,51.59
2022-10-09T10:09:36.733Z,53.15
2022-10-09T10:12:04.117Z,54.56
2022-10-09T10:14:31.544Z,52.72
2022-10-09T10:17:00.114Z,53.33
2022-10-09T10:19:30.902Z,52.80
2022-10-09T10:22:01.671Z,53.06
2022-10-09T10:24:33.392Z,50.85
2022-10-09T10:27:11.559Z,50.17
2022-10-09T10:29:40.536Z,49.74
2022-10-09T10:32:10.222Z,50.03
2022-10-09T10:34:58.188Z,49.27
2022-10-09T10:37:47.280Z,48.31
2022-10-09T10:40:20.650Z,46.47
2022-10-09T10:43:02.072Z,45.95
2022-10-09T10:45:35.681Z,47.60
2022-10-09T10:48:03.699Z,46.79
2022-10-09T10:50:36.512Z,45.46
2022-10-09T10:53:29.655Z,44.91
2022-10-09T10:56:04.195Z,46.56
2022-10-09T10:58:52.753Z,45.20
2022-10-09T11:01:29.153Z,45.13
2022-10-09T11:04:10.942Z,44.86
2022-10-09T11:06:40.959Z,46.02
2022-10-09T11:09:30.843Z,46.20
2022-10-09T11:12:24.871Z,47.27
2022-10-09T11:15:17.175Z,47.07
2022-10-09T11:17:50.362Z,48.03
2022-10-09T11:20:35.928Z,47.16
2022-10-09T11:23:02.806Z,47.93
2022-10-09T11:25:31.222Z,48.52
2022-10-09T11:28:01.524Z,48.38
2022-10-09T11:30:30.864Z,49.06
2022-10-09T11:32:57.454Z,50.34
2022-10-09T11:35:25.384Z,50.80
2022-10-09T11:37:55.014Z,52.09
2022-10-09T11:40:24.814Z,50.76
2022-10-09T11:43:10.273Z,50.22
2022-10-09T11:45:43.009Z,47.65
2022-10-09T11:48:22.064Z,47.02
2022-10-09T11:50:53.275Z,48.19
2022-10-09T11:53:22.147Z,48.97
2022-10-09T11:55:48.831Z,48.57
2022-10-09T11:58:23.902Z,49.88
2022-10-09T12:00:54.102Z,53.20
2022-10-09T12:03:23.671Z,51.86
2022-10-09T12:05:50.419Z,55.93
2022-10-09T12:08:19.779Z,54.82
2022-10-09T12:10:53.055Z,60.16
2022-10-09T12:13:30.905Z,57.78
2022-10-09T12:15:59.132Z,57.88
2022-10-09T12:18:30.512Z,57.11
2022-10-09T12:20:59.486Z,56.92
2022-10-09T12:23:28.117Z,57.30
2022-10-09T12:25:56.386Z,55.07
2022-10-09T12:28:29.718Z,53.25
2022-10-09T12:30:58.017Z,53.56
2022-10-09T12:33:27.761Z,53.75
2022-10-09T12:36:00.275Z,52.17
2022-10-09T12:38:28.561Z,51.88
2022-10-09T12:40:58.718Z,52.49
2022-10-09T12:43:25.484Z,52.50
2022-10-09T12:45:53.496Z,51.62
2022-10-09T12:48:22.062Z,52.17
2022-10-09T12:50:49.021Z,51.88
2022-10-09T12:53:17.223Z,53.82
2022-10-09T12:55:45.889Z,52.82
2022-10-09T12:58:18.760Z,52.69
2022-10-09T13:00:46.979Z,54.49
2022-10-09T13:03:25.729Z,54.72
2022-10-09T13:05:52.726Z,54.53
2022-10-09T13:08:30.218Z,54.99
2022-10-09T13:11:07.919Z,55.59
2022-10-09T13:13:34.675Z,55.51
2022-10-09T13:16:03.088Z,55.67
2022-10-09T13:18:31.153Z,55.36
2022-10-09T13:21:22.991Z,57.47
2022-10-09T13:23:49.591Z,55.97
2022-10-09T13:26:25.139Z,57.51
2022-10-09T13:28:52.640Z,56.18
2022-10-09T13:31:19.429Z,56.31
2022-10-09T13:33:46.641Z,58.02
2022-10-09T13:36:13.784Z,58.40
2022-10-09T13:38:40.472Z,58.46
2022-10-09T13:41:07.314Z,58.01
2022-10-09T13:43:34.074Z,58.08
2022-10-09T13:46:00.734Z,58.48
2022-10-09T13:48:29.607Z,57.50
2022-10-09T13:50:59.248Z,58.35
2022-10-09T13:53:26.266Z,59.35
2022-10-09T13:55:58.422Z,60.10
2022-10-09T13:58:27.939Z,61.32
2022-10-09T14:00:54.860Z,61.51
2022-10-09T14:03:21.505Z,62.37
2022-10-09T14:05:48.172Z,61.40
2022-10-09T14:08:14.814Z,61.66
2022-10-09T14:10:42.776Z,61.67
2022-10-09T14:13:10.393Z,62.39
2022-10-09T14:15:41.044Z,62.14
2022-10-09T14:18:08.234Z,63.12
2022-10-09T14:20:35.611Z,63.63
2022-10-09T14:23:02.332Z,63.25
2022-10-09T14:25:29.020Z,62.83
2022-10-09T14:27:55.843Z,62.87
2022-10-09T14:30:22.524Z,63.51
2022-10-09T14:32:49.359Z,63.10
2022-10-09T14:35:19.370Z,64.19
2022-10-09T14:37:48.092Z,64.92
2022-10-09T14:40:14.725Z,65.29
2022-10-09T14:42:41.451Z,65.57
2022-10-09T14:45:08.644Z,65.71
2022-10-09T14:47:35.342Z,66.85
2022-10-09T14:50:02.334Z,67.44
2022-10-09T14:52:29.112Z,67.31
2022-10-09T14:54:55.761Z,68.16
2022-10-09T14:57:22.448Z,68.87
2022-10-09T14:59:49.052Z,68.90
2022-10-09T15:02:16.249Z,69.76
2022-10-09T15:04:42.959Z,69.37
2022-10-09T15:07:09.641Z,68.61
2022-10-09T15:09:36.256Z,69.65
2022-10-09T15:12:03.111Z,70.25
2022-10-09T15:14:29.753Z,70.33
2022-10-09T15:16:56.367Z,70.51
2022-10-09T15:19:23.120Z,70.87
2022-10-09T15:21:49.830Z,71.78
2022-10-09T15:24:16.436Z,71.74
2022-10-09T15:26:43.151Z,71.66
2022-10-09T15:29:10.983Z,70.77
2022-10-09T15:31:39.364Z,71.89
2022-10-09T15:34:07.851Z,72.55
2022-10-09T15:36:36.157Z,73.59
2022-10-09T15:39:06.126Z,72.84
2022-10-09T15:41:34.524Z,73.39
2022-10-09T15:44:02.335Z,74.07
2022-10-09T15:46:29.659Z,73.76
2022-10-09T15:48:56.743Z,74.98
2022-10-09T15:51:23.683Z,76.83
2022-10-09T15:53:51.428Z,76.67
2022-10-09T15:56:23.011Z,76.86
2022-10-09T15:58:49.956Z,77.48
2022-10-09T16:01:17.723Z,77.31
2022-10-09T16:03:45.206Z,77.63
2022-10-09T16:06:13.542Z,78.34
2022-10-09T16:08:40.421Z,78.56
2022-10-09T16:13:38.013Z,79.02
2022-10-09T16:16:06.092Z,79.51
2022-10-09T16:18:32.902Z,79.89
2022-10-09T16:21:06.700Z,80.15
2022-10-09T16:23:33.395Z,80.28
2022-10-09T16:26:00.832Z,80.86
2022-10-09T16:28:27.639Z,80.70
2022-10-09T16:30:54.353Z,81.28
2022-10-09T16:33:21.762Z,81.06
2022-10-09T16:35:48.365Z,81.70
2022-10-09T16:38:15.830Z,81.75
2022-10-09T16:41:02.504Z,81.94
2022-10-09T16:43:29.591Z,82.41
2022-10-09T16:45:56.532Z,82.53
2022-10-09T16:48:23.231Z,82.80
2022-10-09T16:50:49.912Z,83.08
2022-10-09T16:53:16.692Z,83.72
2022-10-09T16:55:43.334Z,84.20
2022-10-09T16:58:09.956Z,83.67
2022-10-09T17:00:36.809Z,83.83
2022-10-09T17:03:04.029Z,84.78
2022-10-09T17:05:30.713Z,84.95
2022-10-09T17:07:57.394Z,85.06
2022-10-09T17:10:24.039Z,84.83
2022-10-09T17:12:50.669Z,84.50
2022-10-09T17:15:17.626Z,85.62
2022-10-09T17:17:44.402Z,85.98
2022-10-09T17:20:11.083Z,86.35
2022-10-09T17:22:37.881Z,86.43
2022-10-09T17:25:05.496Z,86.37
2022-10-09T17:27:32.164Z,86.61
2022-10-09T17:29:59.008Z,87.43
2022-10-09T17:32:26.097Z,87.57
2022-10-09T17:34:52.824Z,87.62
2022-10-09T17:37:19.561Z,86.62
2022-10-09T17:39:51.119Z,87.38
2022-10-09T17:42:18.911Z,87.49
2022-10-09T17:44:45.796Z,88.97
2022-10-09T17:47:12.622Z,89.43
2022-10-09T17:49:39.321Z,89.21
2022-10-09T17:52:06.184Z,88.93
2022-10-09T17:54:32.942Z,88.50
2022-10-09T17:57:01.413Z,88.88
2022-10-09T17:59:28.177Z,89.20
2022-10-09T18:01:55.243Z,90.45
2022-10-09T18:04:22.197Z,91.40
2022-10-09T18:06:49.047Z,91.52
2022-10-09T18:09:15.921Z,92.19
2022-10-09T18:11:42.990Z,91.39
2022-10-09T18:14:10.090Z,92.22
2022-10-09T18:16:38.173Z,92.75
2022-10-09T18:19:07.928Z,93.40
2022-10-09T18:21:38.782Z,92.18
2022-10-09T18:24:05.579Z,92.71
2022-10-09T18:26:32.531Z,92.28
2022-10-09T18:29:00.468Z,92.20
2022-10-09T18:31:27.529Z,91.61
2022-10-09T18:33:54.458Z,91.64
2022-10-09T18:36:23.096Z,92.16
2022-10-09T18:38:53.734Z,92.04
2022-10-09T18:41:21.335Z,92.15
2022-10-09T18:43:48.949Z,93.45
2022-10-09T18:46:17.280Z,93.03
2022-10-09T18:48:44.841Z,92.34
2022-10-09T18:51:15.071Z,92.44
2022-10-09T18:53:42.831Z,93.23
2022-10-09T18:56:10.253Z,92.64
2022-10-09T18:58:37.905Z,94.66
2022-10-09T19:01:07.484Z,94.41
2022-10-09T19:03:36.618Z,93.34
2022-10-09T19:06:03.969Z,94.01
2022-10-09T19:08:30.735Z,95.08
2022-10-09T19:10:57.535Z,94.85
2022-10-09T19:13:25.259Z,94.85
2022-10-09T19:16:04.846Z,94.20
2022-10-09T19:18:32.196Z,93.67
2022-10-09T19:20:58.946Z,93.91
2022-10-09T19:23:33.780Z,93.80
2022-10-09T19:26:00.930Z,93.51
2022-10-09T19:28:31.166Z,93.43
2022-10-09T19:30:57.986Z,94.14
2022-10-09T19:33:25.056Z,93.53
2022-10-09T19:35:52.909Z,93.50
2022-10-09T19:38:19.899Z,93.44
2022-10-09T19:40:46.906Z,93.36
2022-10-09T19:43:14.557Z,93.43
2022-10-09T19:45:41.823Z,93.65
2022-10-09T19:48:08.968Z,93.25
2022-10-09T19:50:40.507Z,93.88
2022-10-09T19:53:07.465Z,94.19
2022-10-09T19:55:34.308Z,93.45
2022-10-09T19:58:01.097Z,93.71
2022-10-09T20:00:28.228Z,93.74
2022-10-09T20:02:54.937Z,92.75
2022-10-09T20:05:22.333Z,93.40
2022-10-09T20:07:49.458Z,93.13
2022-10-09T20:11:31.255Z,92.83
2022-10-09T20:13:58.946Z,93.26
2022-10-09T20:16:27.947Z,92.81
2022-10-09T20:18:55.420Z,93.08
2022-10-09T20:21:22.746Z,93.08
2022-10-09T20:23:49.615Z,92.96
2022-10-09T20:26:19.090Z,93.21
2022-10-09T20:28:47.228Z,93.13
2022-10-09T20:31:20.082Z,93.11
2022-10-09T20:33:49.035Z,93.64
2022-10-09T20:36:28.555Z,93.84
2022-10-09T20:39:00.446Z,93.17
2022-10-09T20:41:29.164Z,93.17
2022-10-09T20:43:58.938Z,93.60
2022-10-09T20:46:28.546Z,93.49
2022-10-09T20:48:55.952Z,93.30
2022-10-09T20:51:23.797Z,93.58
2022-10-09T20:53:56.457Z,93.59
2022-10-09T20:56:25.816Z,94.34
2022-10-09T20:58:52.855Z,94.65
2022-10-09T21:01:20.228Z,95.62
2022-10-09T21:03:47.594Z,94.90
2022-10-09T21:06:17.554Z,94.64
2022-10-09T21:08:44.744Z,94.12
2022-10-09T21:11:16.626Z,93.97
2022-10-09T21:13:44.642Z,93.68
2022-10-09T21:16:14.382Z,93.53
2022-10-09T21:18:41.484Z,93.52
2022-10-09T21:21:11.766Z,93.36
2022-10-09T21:23:40.794Z,93.45
2022-10-09T21:26:16.010Z,93.17
2022-10-09T21:28:44.088Z,93.57
2022-10-09T21:31:14.556Z,93.50
2022-10-09T21:33:41.507Z,93.77
2022-10-09T21:36:34.055Z,93.74
2022-10-09T21:39:00.901Z,93.40
2022-10-09T21:41:28.112Z,93.10
2022-10-09T21:43:55.171Z,93.18
2022-10-09T21:46:22.163Z,93.33
2022-10-09T21:48:49.008Z,93.58
2022-10-09T21:51:15.997Z,94.02
2022-10-09T21:53:42.859Z,93.94
2022-10-09T21:56:10.126Z,94.07
2022-10-09T21:58:38.957Z,94.18
2022-10-09T22:01:06.353Z,94.48
2022-10-09T22:03:36.175Z,94.17
2022-10-09T22:06:09.385Z,94.35
2022-10-09T22:08:37.264Z,94.73
2022-10-09T22:11:08.329Z,94.26
2022-10-09T22:13:35.303Z,94.50
2022-10-09T22:16:07.009Z,94.72
2022-10-09T22:18:34.557Z,94.53
2022-10-09T22:21:14.024Z,94.58
2022-10-09T22:23:41.368Z,94.18
2022-10-09T22:26:13.592Z,94.63
2022-10-09T22:28:40.812Z,94.92
2022-10-09T22:31:25.235Z,94.26
2022-10-09T22:33:57.933Z,93.78
2022-10-09T22:36:27.271Z,93.54
2022-10-09T22:38:59.252Z,94.97
2022-10-09T22:41:27.781Z,94.65
2022-10-09T22:43:57.560Z,95.54
2022-10-09T22:46:27.023Z,95.27
2022-10-09T22:48:54.558Z,94.70
2022-10-09T22:51:23.288Z,94.57
2022-10-09T22:53:50.344Z,94.43
2022-10-09T22:56:21.033Z,94.15
2022-10-09T22:58:49.044Z,95.06
2022-10-09T23:01:19.785Z,95.35
2022-10-09T23:03:46.787Z,95.37
2022-10-09T23:06:17.521Z,95.08
2022-10-09T23:08:45.693Z,95.07
2022-10-09T23:11:14.071Z,94.94
2022-10-09T23:13:41.002Z,94.48
2022-10-09T23:16:10.656Z,94.68
2022-10-09T23:18:38.486Z,93.96
2022-10-09T23:21:07.966Z,94.08
2022-10-09T23:23:34.874Z,94.12
2022-10-09T23:26:06.681Z,93.75
2022-10-09T23:28:34.250Z,93.99
2022-10-09T23:31:07.066Z,94.24
2022-10-09T23:33:34.435Z,94.54
2022-10-09T23:36:05.087Z,93.92
2022-10-09T23:38:32.059Z,93.87
2022-10-09T23:41:00.767Z,93.90
2022-10-09T23:43:29.371Z,94.22
2022-10-09T23:45:58.381Z,93.70
2022-10-09T23:48:26.166Z,93.52
2022-10-09T23:50:53.861Z,93.57
2022-10-09T23:53:21.311Z,93.85
2022-10-09T23:55:48.471Z,94.08
2022-10-09T23:58:20.517Z,94.03
